Time;durP1;ratioP1;P1;durP2;ratioP2;P2;SDS_P1;SDS_P2;PMS_P1;PMS_P2;Temp;Humidity;BMP_temperature;BMP_pressure;BME280_temperature;BME280_humidity;BME280_pressure;Samples;Min_cycle;Max_cycle;Signal;HPM_P1;HPM_P2
2024/02/21 00:03:41;;;;;;;35.30;7.70;;;;;;;5.85;100.00;101065.23;213735;1286;139021;-87
2024/02/21 00:08:42;;;;;;;31.30;7.90;;;;;;;5.86;100.00;101067.19;213370;1287;140285;-89
2024/02/21 00:13:42;;;;;;;24.20;8.10;;;;;;;5.83;100.00;101060.16;213855;1286;139472;-89
2024/02/21 00:18:43;;;;;;;33.90;7.40;;;;;;;5.82;100.00;101061.59;213185;1286;140240;-89
2024/02/21 00:23:49;;;;;;;27.40;7.50;;;;;;;5.78;100.00;101061.38;214684;1285;139068;-89
2024/02/21 00:28:49;;;;;;;22.40;7.00;;;;;;;5.73;100.00;101054.41;214087;1288;140156;-88
2024/02/21 00:33:50;;;;;;;31.90;7.60;;;;;;;5.69;100.00;101050.80;214511;1286;139240;-88
2024/02/21 00:38:51;;;;;;;31.80;8.40;;;;;;;5.64;100.00;101047.64;213646;1285;140218;-88
2024/02/21 00:43:51;;;;;;;32.80;7.60;;;;;;;5.59;100.00;101045.70;213989;1285;139077;-87
2024/02/21 00:48:52;;;;;;;30.60;7.90;;;;;;;5.52;100.00;101042.55;213736;1285;140041;-88
2024/02/21 00:53:52;;;;;;;28.80;8.20;;;;;;;5.47;100.00;101036.10;214009;1285;138538;-87
2024/02/21 00:58:53;;;;;;;30.30;8.50;;;;;;;5.44;100.00;101024.96;213465;1289;140210;-87
2024/02/21 01:03:53;;;;;;;25.90;7.10;;;;;;;5.42;100.00;101014.60;213996;1285;138958;-88
2024/02/21 01:08:54;;;;;;;33.30;7.10;;;;;;;5.41;100.00;101007.48;213456;1285;140615;-89
2024/02/21 01:13:55;;;;;;;34.20;8.20;;;;;;;5.42;100.00;100991.42;213673;1285;139350;-89
2024/02/21 01:18:56;;;;;;;30.40;7.00;;;;;;;5.42;100.00;100984.90;213668;1290;140346;-88
2024/02/21 01:23:56;;;;;;;32.10;7.20;;;;;;;5.43;100.00;100979.48;213991;1290;138530;-88
2024/02/21 01:28:57;;;;;;;33.50;7.30;;;;;;;5.42;100.00;100976.33;213245;1289;139974;-88
2024/02/21 01:34:00;;;;;;;29.80;7.40;;;;;;;5.43;100.00;100969.00;213814;1285;138953;-88
2024/02/21 01:39:00;;;;;;;32.10;8.00;;;;;;;5.43;100.00;100969.80;213217;1286;139841;-88
2024/02/21 01:44:01;;;;;;;33.00;7.90;;;;;;;5.43;100.00;100969.18;213606;1287;138950;-89
2024/02/21 01:49:02;;;;;;;29.80;8.60;;;;;;;5.43;100.00;100973.71;213079;1290;139875;-88
2024/02/21 01:54:02;;;;;;;26.80;7.10;;;;;;;5.44;100.00;100969.21;213804;1287;98074;-89
2024/02/21 01:59:03;;;;;;;29.60;7.60;;;;;;;5.45;100.00;100967.54;213370;1291;139754;-89
2024/02/21 02:04:05;;;;;;;34.30;7.40;;;;;;;5.45;100.00;100961.23;213741;1286;139931;-89
2024/02/21 02:09:05;;;;;;;22.80;7.10;;;;;;;5.48;100.00;100955.58;213435;1285;139896;-89
2024/02/21 02:14:06;;;;;;;31.30;7.90;;;;;;;5.53;100.00;100953.66;214105;1285;138854;-89
2024/02/21 02:19:06;;;;;;;30.20;8.00;;;;;;;5.56;100.00;100948.08;213564;1288;140590;-89
2024/02/21 02:24:07;;;;;;;28.30;7.00;;;;;;;5.59;100.00;100946.48;214268;1290;98420;-91
2024/02/21 02:29:07;;;;;;;23.30;7.80;;;;;;;5.63;100.00;100944.30;213472;1285;140591;-89
2024/02/21 02:34:08;;;;;;;29.20;8.10;;;;;;;5.67;100.00;100931.20;214088;1288;142405;-89
2024/02/21 02:39:08;;;;;;;32.80;9.90;;;;;;;5.70;100.00;100927.81;213145;1288;140621;-89
2024/02/21 02:44:09;;;;;;;34.40;10.20;;;;;;;5.74;100.00;100924.37;213468;1291;139870;-89
2024/02/21 02:49:09;;;;;;;38.80;8.50;;;;;;;5.77;100.00;100919.04;212974;1289;140146;-89
2024/02/21 02:54:11;;;;;;;36.60;8.60;;;;;;;5.81;100.00;100912.71;214289;1288;99280;-89
2024/02/21 02:59:11;;;;;;;30.30;8.00;;;;;;;5.83;100.00;100908.05;213333;1286;139929;-89
2024/02/21 03:04:11;;;;;;;28.60;9.00;;;;;;;5.86;100.00;100899.81;213805;1287;139344;-89
2024/02/21 03:09:12;;;;;;;32.50;8.20;;;;;;;5.88;100.00;100899.20;213641;1290;140873;-89
2024/02/21 03:14:12;;;;;;;35.10;10.30;;;;;;;5.90;100.00;100893.23;214133;1289;139382;-91
2024/02/21 03:19:13;;;;;;;39.50;10.60;;;;;;;5.91;100.00;100888.67;213521;1285;139988;-88
2024/02/21 03:24:13;;;;;;;31.90;9.90;;;;;;;5.91;100.00;100883.62;214149;1291;99270;-88
2024/02/21 03:29:14;;;;;;;36.30;9.20;;;;;;;5.93;100.00;100886.39;213684;1291;140494;-88
2024/02/21 03:34:15;;;;;;;34.90;10.20;;;;;;;5.92;100.00;100876.63;214065;1285;139634;-88
2024/02/21 03:39:15;;;;;;;28.40;9.40;;;;;;;5.92;100.00;100872.78;213348;1290;140413;-90
2024/02/21 03:44:16;;;;;;;29.10;9.20;;;;;;;5.91;100.00;100872.75;213630;1290;139518;-88
2024/02/21 03:49:16;;;;;;;33.70;8.90;;;;;;;5.91;100.00;100872.52;213090;1287;140100;-86
2024/02/21 03:54:17;;;;;;;31.90;9.50;;;;;;;5.91;100.00;100867.85;213757;1287;107188;-88
2024/02/21 03:59:17;;;;;;;32.30;9.50;;;;;;;5.89;100.00;100856.70;213304;1291;140323;-88
2024/02/21 04:04:17;;;;;;;33.70;10.10;;;;;;;5.91;100.00;100853.77;213595;1287;139551;-88
2024/02/21 04:09:18;;;;;;;30.50;9.00;;;;;;;5.90;100.00;100851.59;213186;1287;140343;-87
2024/02/21 04:14:19;;;;;;;33.80;9.50;;;;;;;5.91;100.00;100845.58;213614;1290;139375;-89
2024/02/21 04:19:19;;;;;;;33.10;9.80;;;;;;;5.90;100.00;100840.02;213138;1287;140332;-89
2024/02/21 04:24:19;;;;;;;32.50;8.90;;;;;;;5.90;100.00;100830.44;213595;1292;99283;-88
2024/02/21 04:29:20;;;;;;;37.20;9.50;;;;;;;5.91;100.00;100827.86;212968;1287;140329;-89
2024/02/21 04:34:21;;;;;;;33.20;11.40;;;;;;;5.90;100.00;100824.34;213380;1292;138698;-89
2024/02/21 04:39:21;;;;;;;35.50;10.60;;;;;;;5.90;100.00;100821.90;213253;1285;140049;-89
2024/02/21 04:44:22;;;;;;;33.60;9.80;;;;;;;5.90;100.00;100816.90;214046;1286;139040;-89
2024/02/21 04:49:22;;;;;;;26.20;9.40;;;;;;;5.91;100.00;100816.55;213326;1291;139811;-88
2024/02/21 04:54:23;;;;;;;26.70;9.00;;;;;;;5.91;100.00;100805.34;214093;1285;98760;-88
2024/02/21 04:59:23;;;;;;;31.90;10.40;;;;;;;5.92;100.00;100798.25;213011;1287;139853;-89
2024/02/21 05:04:24;;;;;;;31.50;9.80;;;;;;;5.93;100.00;100795.25;213962;1289;139546;-90
2024/02/21 05:09:25;;;;;;;30.00;9.70;;;;;;;5.94;100.00;100794.41;213592;1286;140558;-89
2024/02/21 05:14:26;;;;;;;35.30;11.60;;;;;;;5.94;100.00;100786.16;214177;1285;139040;-88
2024/02/21 05:19:27;;;;;;;29.40;9.80;;;;;;;5.96;100.00;100784.81;213634;1285;139907;-88
2024/02/21 05:24:27;;;;;;;28.70;7.60;;;;;;;5.96;100.00;100778.26;214226;1290;97960;-89
2024/02/21 05:29:28;;;;;;;28.60;8.90;;;;;;;5.96;100.00;100769.21;213573;1289;139641;-90
2024/02/21 05:34:28;;;;;;;27.30;8.90;;;;;;;5.97;100.00;100767.60;214083;1289;139349;-88
2024/02/21 05:39:29;;;;;;;30.90;10.30;;;;;;;5.97;100.00;100759.41;213371;1285;140703;-86
2024/02/21 05:44:29;;;;;;;26.70;9.50;;;;;;;5.97;100.00;100755.36;213921;1285;139038;-88
2024/02/21 05:49:29;;;;;;;32.60;9.40;;;;;;;5.98;100.00;100752.48;213346;1287;139868;-88
2024/02/21 05:54:30;;;;;;;37.10;9.70;;;;;;;5.99;100.00;100754.63;213811;1287;97959;-88
2024/02/21 05:59:30;;;;;;;26.50;9.00;;;;;;;6.00;100.00;100751.02;213151;1287;140942;-88
2024/02/21 06:04:31;;;;;;;30.20;12.60;;;;;;;6.00;100.00;100758.27;213526;1287;138858;-88
2024/02/21 06:09:31;;;;;;;27.70;9.90;;;;;;;6.00;100.00;100747.19;213286;1285;140661;-89
2024/02/21 06:14:32;;;;;;;27.00;8.90;;;;;;;6.01;100.00;100748.70;214142;1288;140704;-89
2024/02/21 06:19:33;;;;;;;32.10;10.40;;;;;;;6.02;100.00;100745.45;213681;1285;139814;-89
2024/02/21 06:24:36;;;;;;;36.40;12.10;;;;;;;6.03;100.00;100745.64;214195;1289;97928;-88
2024/02/21 06:29:37;;;;;;;32.00;10.70;;;;;;;6.03;100.00;100740.02;213483;1291;139715;-90
2024/02/21 06:34:38;;;;;;;38.40;11.50;;;;;;;6.04;100.00;100731.84;213451;1288;138779;-87
2024/02/21 06:39:40;;;;;;;33.30;10.20;;;;;;;6.05;100.00;100732.22;213193;1292;139782;-91
2024/02/21 06:44:41;;;;;;;38.90;9.90;;;;;;;6.06;100.00;100726.88;213667;1290;139065;-90
2024/02/21 06:49:42;;;;;;;30.60;9.60;;;;;;;6.09;100.00;100725.77;213225;1290;140297;-89
2024/02/21 06:54:42;;;;;;;36.20;9.70;;;;;;;6.10;100.00;100720.81;213672;1290;97914;-92
2024/02/21 06:59:42;;;;;;;28.60;9.00;;;;;;;6.12;100.00;100713.48;213529;1291;139539;-89
2024/02/21 07:04:43;;;;;;;30.20;10.40;;;;;;;6.14;100.00;100716.36;213984;1291;139184;-89
2024/02/21 07:09:44;;;;;;;26.70;10.50;;;;;;;6.16;100.00;100716.10;213306;1290;139943;-89
2024/02/21 07:14:44;;;;;;;36.90;9.10;;;;;;;6.18;100.00;100710.17;214006;1286;139026;-88
2024/02/21 07:19:45;;;;;;;31.20;10.60;;;;;;;6.19;100.00;100704.02;213508;1291;139698;-88
2024/02/21 07:24:45;;;;;;;33.20;11.70;;;;;;;6.20;100.00;100697.98;214078;1290;98112;-88
2024/02/21 07:29:48;;;;;;;36.90;13.90;;;;;;;6.23;100.00;100692.98;213136;1288;140205;-88
2024/02/21 07:34:49;;;;;;;33.00;12.00;;;;;;;6.25;100.00;100686.80;213636;1290;138991;-88
2024/02/21 07:39:49;;;;;;;32.30;10.30;;;;;;;6.28;100.00;100689.71;213310;1289;140560;-88
2024/02/21 07:44:50;;;;;;;23.40;9.40;;;;;;;6.30;100.00;100688.47;214113;1290;139188;-86
2024/02/21 07:49:50;;;;;;;26.80;10.00;;;;;;;6.32;100.00;100680.88;213883;1291;140243;-87
2024/02/21 07:54:51;;;;;;;34.10;11.40;;;;;;;6.34;100.00;100677.80;214369;1287;97984;-85
2024/02/21 07:59:51;;;;;;;31.20;10.80;;;;;;;6.37;100.00;100687.51;213322;1287;139954;-85
2024/02/21 08:04:52;;;;;;;25.30;9.60;;;;;;;6.42;100.00;100687.38;213686;1292;139062;-85
2024/02/21 08:09:52;;;;;;;28.50;11.00;;;;;;;6.51;100.00;100695.30;212966;1287;140299;-87
2024/02/21 08:14:52;;;;;;;27.30;10.60;;;;;;;6.59;100.00;100690.09;213332;1292;139011;-89
2024/02/21 08:19:53;;;;;;;33.60;14.00;;;;;;;6.65;100.00;100685.50;212923;1292;139918;-87
2024/02/21 08:24:53;;;;;;;32.70;11.10;;;;;;;6.71;100.00;100689.42;213944;1285;99297;-85
2024/02/21 08:29:54;;;;;;;24.50;11.00;;;;;;;6.77;100.00;100688.84;213048;1291;139942;-86
2024/02/21 08:34:54;;;;;;;29.90;10.30;;;;;;;6.82;100.00;100691.44;213648;1289;139007;-88
2024/02/21 08:39:55;;;;;;;31.10;10.50;;;;;;;6.85;100.00;100682.92;212843;1291;141162;-87
2024/02/21 08:44:55;;;;;;;32.00;10.70;;;;;;;6.86;100.00;100673.16;213445;1292;139339;-87
2024/02/21 08:49:55;;;;;;;28.00;10.00;;;;;;;6.86;100.00;100665.98;213039;1290;140307;-88
2024/02/21 08:54:56;;;;;;;32.80;11.20;;;;;;;6.88;100.00;100657.66;213652;1288;98100;-87
2024/02/21 08:59:56;;;;;;;27.20;11.30;;;;;;;6.90;100.00;100663.52;213240;1291;140279;-87
2024/02/21 09:04:56;;;;;;;30.30;11.30;;;;;;;6.93;100.00;100652.13;213882;1285;138917;-88
2024/02/21 09:09:57;;;;;;;30.00;11.60;;;;;;;6.97;100.00;100644.65;213588;1288;140472;-89
2024/02/21 09:14:57;;;;;;;31.70;11.40;;;;;;;7.00;100.00;100644.05;214268;1287;139572;-86
2024/02/21 09:20:02;;;;;;;25.00;9.90;;;;;;;7.04;100.00;100637.91;213481;1291;140554;-86
2024/02/21 09:25:04;;;;;;;24.50;9.90;;;;;;;7.10;100.00;100639.15;213871;1289;138884;-87
2024/02/21 09:30:06;;;;;;;36.50;10.70;;;;;;;7.14;100.00;100642.33;213885;1290;140313;-87
2024/02/21 09:35:07;;;;;;;32.90;11.30;;;;;;;7.16;100.00;100647.48;213895;1286;139392;-88
2024/02/21 09:40:07;;;;;;;31.00;11.10;;;;;;;7.17;100.00;100646.95;214516;1290;140355;-88
2024/02/21 09:45:29;;;;;;;25.60;12.00;;;;;;;7.18;100.00;100638.86;214874;1286;139579;-86
2024/02/21 09:50:32;;;;;;;33.30;11.40;;;;;;;7.20;100.00;100639.83;214754;1289;140117;-88
2024/02/21 09:55:34;;;;;;;29.10;11.20;;;;;;;7.20;100.00;100637.95;215184;1291;139168;-89
2024/02/21 10:00:35;;;;;;;30.40;12.20;;;;;;;7.20;100.00;100637.34;214883;1291;140086;-88
2024/02/21 10:05:37;;;;;;;26.10;11.00;;;;;;;7.21;100.00;100633.52;214669;1292;139539;-87
2024/02/21 10:10:44;;;;;;;28.70;12.40;;;;;;;7.24;100.00;100631.67;214380;1286;140129;-89
2024/02/21 10:15:49;;;;;;;26.90;11.10;;;;;;;7.29;100.00;100624.90;213629;1286;140150;-90
2024/02/21 10:21:03;;;;;;;26.60;12.60;;;;;;;7.33;100.00;100629.64;213007;1289;139943;-89
2024/02/21 10:26:07;;;;;;;31.90;12.30;;;;;;;7.38;100.00;100625.34;213671;1290;139078;-87
2024/02/21 10:31:10;;;;;;;24.50;10.10;;;;;;;7.44;100.00;100617.18;212964;1286;139703;-87
2024/02/21 10:36:11;;;;;;;27.00;11.70;;;;;;;7.51;100.00;100611.27;213702;1288;97967;-87
2024/02/21 10:41:15;;;;;;;21.00;9.40;;;;;;;7.59;100.00;100606.95;212906;1286;139241;-89
2024/02/21 10:46:19;;;;;;;28.70;9.70;;;;;;;7.70;100.00;100595.64;212900;1289;139866;-87
2024/02/21 10:51:22;;;;;;;23.70;10.30;;;;;;;7.81;100.00;100584.72;213692;1292;139446;-89
2024/02/21 10:56:31;;;;;;;27.20;11.90;;;;;;;7.90;100.00;100573.90;213054;1292;140018;-89
2024/02/21 11:01:31;;;;;;;27.10;9.90;;;;;;;7.99;100.00;100564.17;213653;1287;139015;-89
2024/02/21 11:06:34;;;;;;;26.30;9.50;;;;;;;8.07;100.00;100565.69;213105;1287;140628;-92
2024/02/21 11:11:37;;;;;;;28.30;9.80;;;;;;;8.13;100.00;100557.69;213996;1289;139135;-88
2024/02/21 11:16:39;;;;;;;25.00;9.50;;;;;;;8.17;100.00;100551.13;213362;1290;140115;-89
2024/02/21 11:21:41;;;;;;;22.90;10.10;;;;;;;8.21;100.00;100537.60;213724;1286;139113;-90
2024/02/21 11:26:42;;;;;;;26.50;10.80;;;;;;;8.27;100.00;100526.86;213363;1285;139912;-88
2024/02/21 11:31:45;;;;;;;26.20;9.80;;;;;;;8.32;100.00;100522.42;213813;1286;139606;-88
2024/02/21 11:36:48;;;;;;;24.60;9.70;;;;;;;8.39;100.00;100510.35;213474;1288;139805;-88
2024/02/21 11:42:07;;;;;;;28.10;11.10;;;;;;;8.47;100.00;100504.64;213611;1291;139393;-88
2024/02/21 11:47:08;;;;;;;29.00;10.80;;;;;;;8.54;100.00;100495.84;213192;1286;140652;-88
2024/02/21 11:52:09;;;;;;;25.50;10.50;;;;;;;8.59;100.00;100491.73;214044;1286;139213;-89
2024/02/21 11:57:13;;;;;;;24.60;11.00;;;;;;;8.64;100.00;100498.70;213455;1285;141484;-88
2024/02/21 12:02:14;;;;;;;26.20;10.20;;;;;;;8.65;100.00;100497.54;213882;1285;139400;-88
2024/02/21 12:07:14;;;;;;;23.80;10.30;;;;;;;8.63;100.00;100494.16;213133;1288;141054;-89
2024/02/21 12:12:20;;;;;;;26.40;9.90;;;;;;;8.63;100.00;100495.17;213618;1287;98142;-89
2024/02/21 12:17:21;;;;;;;29.60;10.80;;;;;;;8.61;100.00;100490.11;213317;1285;139585;-91
2024/02/21 12:22:21;;;;;;;33.40;12.20;;;;;;;8.60;100.00;100480.77;213875;1290;139013;-89
2024/02/21 12:27:23;;;;;;;28.90;12.00;;;;;;;8.61;100.00;100469.88;213398;1285;140982;-88
2024/02/21 12:32:24;;;;;;;27.00;11.80;;;;;;;8.63;100.00;100472.90;213875;1286;139635;-90
2024/02/21 12:37:25;;;;;;;25.30;10.20;;;;;;;8.64;100.00;100472.77;213437;1289;140118;-90
2024/02/21 12:42:26;;;;;;;33.60;11.70;;;;;;;8.66;100.00;100462.38;214112;1285;99270;-92
2024/02/21 12:47:27;;;;;;;26.60;10.40;;;;;;;8.69;100.00;100452.88;213678;1285;139953;-89
2024/02/21 12:52:27;;;;;;;24.50;9.80;;;;;;;8.73;100.00;100454.98;215138;1285;138887;-90
2024/02/21 12:57:28;;;;;;;28.50;10.30;;;;;;;8.76;100.00;100445.95;213650;1289;139807;-90
2024/02/21 13:02:28;;;;;;;21.20;9.90;;;;;;;8.77;100.00;100441.50;213883;1290;139622;-92
2024/02/21 13:07:29;;;;;;;23.90;9.50;;;;;;;8.78;100.00;100440.89;213351;1286;140589;-90
2024/02/21 13:12:30;;;;;;;20.30;10.30;;;;;;;8.78;100.00;100438.23;213962;1285;98049;-91
2024/02/21 13:17:31;;;;;;;26.00;11.50;;;;;;;8.80;100.00;100435.35;213202;1291;139918;-92
2024/02/21 13:22:32;;;;;;;24.70;10.20;;;;;;;8.79;100.00;100437.16;213633;1287;139324;-92
2024/02/21 13:27:33;;;;;;;24.10;10.40;;;;;;;8.81;100.00;100434.02;213096;1292;140199;-92
2024/02/21 13:32:33;;;;;;;23.00;10.10;;;;;;;8.82;100.00;100426.92;213602;1287;139856;-91
2024/02/21 13:37:34;;;;;;;24.70;10.90;;;;;;;8.84;100.00;100424.46;213090;1286;140093;-90
2024/02/21 13:42:35;;;;;;;25.10;9.60;;;;;;;8.84;100.00;100409.71;213628;1287;99384;-90
2024/02/21 13:47:38;;;;;;;25.30;10.40;;;;;;;8.84;100.00;100403.59;213380;1288;139740;-90
2024/02/21 13:52:39;;;;;;;22.60;9.80;;;;;;;8.81;100.00;100401.81;215322;1288;139036;-91
2024/02/21 13:57:40;;;;;;;24.50;9.20;;;;;;;8.80;100.00;100400.77;213450;1289;140252;-92
2024/02/21 14:02:40;;;;;;;23.60;9.20;;;;;;;8.78;100.00;100399.98;213700;1291;141033;-92
2024/02/21 14:07:40;;;;;;;20.80;9.00;;;;;;;8.77;100.00;100400.83;213133;1287;139987;-92
2024/02/21 14:12:41;;;;;;;26.20;9.00;;;;;;;8.77;100.00;100398.61;213654;1287;98663;-91
2024/02/21 14:17:41;;;;;;;19.70;8.60;;;;;;;8.74;100.00;100396.93;213102;1287;140516;-91
2024/02/21 14:22:41;;;;;;;17.40;8.80;;;;;;;8.72;100.00;100399.95;213539;1286;138744;-91
2024/02/21 14:27:43;;;;;;;19.50;8.00;;;;;;;8.71;100.00;100395.44;213102;1286;140125;-91
2024/02/21 14:32:45;;;;;;;21.40;8.50;;;;;;;8.69;100.00;100395.95;213725;1286;140076;-91
2024/02/21 14:37:48;;;;;;;23.80;8.20;;;;;;;8.67;100.00;100394.13;213309;1291;139655;-91
2024/02/21 14:42:49;;;;;;;25.00;8.80;;;;;;;8.67;100.00;100383.93;213686;1291;98042;-91
2024/02/21 14:47:49;;;;;;;20.30;9.00;;;;;;;8.66;100.00;100382.57;213189;1286;139861;-91
2024/02/21 14:52:50;;;;;;;21.30;9.00;;;;;;;8.65;100.00;100374.96;214803;1286;138983;-91
2024/02/21 14:57:50;;;;;;;27.30;10.00;;;;;;;8.65;100.00;100366.25;213092;1286;139786;-91
2024/02/21 15:02:50;;;;;;;17.70;9.00;;;;;;;8.65;100.00;100357.48;213656;1285;139238;-92
2024/02/21 15:07:52;;;;;;;17.70;8.30;;;;;;;8.64;100.00;100354.96;213307;1286;140492;-91
2024/02/21 15:12:52;;;;;;;19.40;8.50;;;;;;;8.64;100.00;100341.71;214135;1286;97945;-92
2024/02/21 15:17:52;;;;;;;21.40;9.30;;;;;;;8.64;100.00;100343.45;213651;1287;139861;-92
2024/02/21 15:22:53;;;;;;;19.50;8.10;;;;;;;8.64;100.00;100335.21;213577;1287;139053;-92
2024/02/21 15:27:54;;;;;;;26.70;9.10;;;;;;;8.64;100.00;100333.09;213344;1286;139914;-92
2024/02/21 15:32:58;;;;;;;18.90;8.10;;;;;;;8.64;100.00;100336.46;213623;1286;208818;-92
2024/02/21 15:37:58;;;;;;;28.00;8.80;;;;;;;8.65;100.00;100339.85;213009;1290;139991;-93
2024/02/21 15:42:59;;;;;;;20.00;7.90;;;;;;;8.65;100.00;100343.62;213705;1286;99426;-93
2024/02/21 15:47:59;;;;;;;21.50;9.90;;;;;;;8.63;100.00;100338.18;213280;1288;139883;-92
2024/02/21 15:53:01;;;;;;;27.10;11.90;;;;;;;8.63;100.00;100340.36;213735;1290;138874;-92
2024/02/21 15:58:04;;;;;;;26.20;10.20;;;;;;;8.62;100.00;100333.52;213326;1285;139986;-92
2024/02/21 16:03:04;;;;;;;30.40;11.30;;;;;;;8.60;100.00;100326.98;213633;1285;139233;-93
2024/02/21 16:08:05;;;;;;;25.50;10.70;;;;;;;8.58;100.00;100316.61;213184;1286;139857;-89
2024/02/21 16:13:06;;;;;;;21.70;9.40;;;;;;;8.57;100.00;100307.41;213639;1287;139196;-88
2024/02/21 16:18:06;;;;;;;23.10;9.30;;;;;;;8.55;100.00;100314.36;214100;1286;140080;-88
2024/02/21 16:23:07;;;;;;;29.40;9.90;;;;;;;8.54;100.00;100322.49;214353;1287;140436;-89
2024/02/21 16:28:08;;;;;;;22.30;11.20;;;;;;;8.52;100.00;100317.45;214556;1286;140122;-89
2024/02/21 16:33:09;;;;;;;27.90;12.30;;;;;;;8.51;100.00;100310.22;215480;1285;139527;-91
2024/02/21 16:38:09;;;;;;;27.90;11.90;;;;;;;8.49;100.00;100314.11;215090;1287;141123;-87
2024/02/21 16:43:11;;;;;;;28.80;11.60;;;;;;;8.48;100.00;100315.48;214502;1285;139063;-88
2024/02/21 16:48:11;;;;;;;29.00;13.70;;;;;;;8.47;100.00;100313.36;213701;1289;140878;-88
2024/02/21 16:53:12;;;;;;;33.40;14.30;;;;;;;8.46;100.00;100309.35;214820;1289;138890;-88
2024/02/21 16:58:12;;;;;;;32.40;14.70;;;;;;;8.46;100.00;100309.34;213359;1285;140501;-87
2024/02/21 17:03:19;;;;;;;28.40;14.00;;;;;;;8.45;100.00;100302.50;213795;1285;139208;-86
2024/02/21 17:08:19;;;;;;;32.10;14.20;;;;;;;8.42;100.00;100299.55;213205;1285;140111;-89
2024/02/21 17:13:21;;;;;;;31.10;14.20;;;;;;;8.41;100.00;100293.34;213726;1285;139211;-87
2024/02/21 17:18:23;;;;;;;39.90;15.50;;;;;;;8.40;100.00;100287.61;213424;1289;140936;-90
2024/02/21 17:23:23;;;;;;;26.70;14.80;;;;;;;8.39;100.00;100287.66;213882;1285;139022;-87
2024/02/21 17:28:24;;;;;;;33.30;16.00;;;;;;;8.37;100.00;100276.75;213265;1286;140000;-87
2024/02/21 17:33:24;;;;;;;29.40;15.50;;;;;;;8.36;100.00;100274.70;213647;1286;142754;-88
2024/02/21 17:38:26;;;;;;;31.50;15.00;;;;;;;8.36;100.00;100268.65;213287;1288;140122;-89
2024/02/21 17:43:29;;;;;;;34.10;16.40;;;;;;;8.35;100.00;100257.68;213877;1286;139115;-87
2024/02/21 17:48:30;;;;;;;34.60;15.40;;;;;;;8.35;100.00;100253.98;213294;1285;140728;-86
2024/02/21 17:53:30;;;;;;;30.20;16.40;;;;;;;8.34;100.00;100251.48;215009;1286;138986;-87
2024/02/21 17:58:30;;;;;;;39.30;19.00;;;;;;;8.33;100.00;100247.14;213150;1287;140664;-87
2024/02/21 18:03:31;;;;;;;31.40;17.10;;;;;;;8.32;100.00;100236.95;213583;1285;139214;-87
2024/02/21 18:08:32;;;;;;;34.20;15.50;;;;;;;8.31;100.00;100226.90;213240;1286;140323;-89
2024/02/21 18:13:32;;;;;;;32.60;14.90;;;;;;;8.30;100.00;100223.82;213670;1292;141000;-87
2024/02/21 18:18:32;;;;;;;32.50;16.30;;;;;;;8.29;100.00;100220.91;213189;1285;140146;-87
2024/02/21 18:23:34;;;;;;;29.80;14.70;;;;;;;8.26;100.00;100215.91;213625;1286;139394;-86
2024/02/21 18:28:36;;;;;;;26.70;14.50;;;;;;;8.22;100.00;100211.24;213148;1286;140319;-86
2024/02/21 18:33:36;;;;;;;36.10;17.70;;;;;;;8.20;100.00;100214.63;213732;1288;139745;-87
2024/02/21 18:38:37;;;;;;;27.90;14.80;;;;;;;8.15;100.00;100217.74;213239;1291;140350;-86
2024/02/21 18:43:37;;;;;;;36.10;17.00;;;;;;;8.11;100.00;100220.80;213820;1286;140281;-87
2024/02/21 18:48:45;;;;;;;32.00;16.50;;;;;;;8.06;100.00;100217.05;213275;1288;142452;-87
2024/02/21 18:53:46;;;;;;;29.60;14.70;;;;;;;8.01;100.00;100211.77;215000;1287;139779;-87
2024/02/21 18:58:47;;;;;;;28.00;16.00;;;;;;;7.97;100.00;100208.10;213144;1286;140969;-88
2024/02/21 19:03:48;;;;;;;36.90;17.20;;;;;;;7.94;100.00;100204.85;213764;1286;139882;-87
2024/02/21 19:08:50;;;;;;;30.10;15.80;;;;;;;7.90;100.00;100200.15;213189;1287;140055;-87
2024/02/21 19:13:52;;;;;;;29.50;14.60;;;;;;;7.84;100.00;100196.54;213581;1286;140393;-87
2024/02/21 19:18:53;;;;;;;27.20;14.20;;;;;;;7.79;100.00;100197.21;213331;1286;140094;-87
2024/02/21 19:23:53;;;;;;;33.60;16.10;;;;;;;7.72;100.00;100188.48;213687;1287;139551;-87
2024/02/21 19:28:54;;;;;;;28.00;15.80;;;;;;;7.65;100.00;100186.16;213446;1288;140223;-86
2024/02/21 19:33:54;;;;;;;30.50;16.40;;;;;;;7.58;100.00;100178.90;213943;1285;140259;-87
2024/02/21 19:38:55;;;;;;;25.80;14.60;;;;;;;7.51;100.00;100169.77;213490;1288;141181;-87
2024/02/21 19:43:55;;;;;;;29.20;15.00;;;;;;;7.45;100.00;100167.52;214026;1285;140000;-87
2024/02/21 19:48:55;;;;;;;26.10;13.80;;;;;;;7.40;100.00;100160.08;213838;1288;141006;-87
2024/02/21 19:53:56;;;;;;;33.00;15.00;;;;;;;7.39;100.00;100148.95;214543;1289;138867;-87
2024/02/21 19:58:56;;;;;;;27.60;14.00;;;;;;;7.41;100.00;100142.35;214418;1286;142601;-87
2024/02/21 20:03:57;;;;;;;26.40;14.20;;;;;;;7.43;100.00;100134.19;214052;1285;139550;-87
2024/02/21 20:09:05;;;;;;;31.10;16.00;;;;;;;7.44;100.00;100130.92;213307;1288;140200;-88
2024/02/21 20:14:07;;;;;;;29.10;14.70;;;;;;;7.47;100.00;100124.55;214004;1285;139194;-87
2024/02/21 20:19:12;;;;;;;31.70;15.10;;;;;;;7.48;100.00;100120.10;213516;1286;141328;-87
2024/02/21 20:24:13;;;;;;;30.20;14.90;;;;;;;7.47;100.00;100109.52;213970;1285;97968;-87
2024/02/21 20:29:15;;;;;;;29.90;15.20;;;;;;;7.45;100.00;100090.78;213047;1285;227150;-87
2024/02/21 20:34:16;;;;;;;33.30;18.30;;;;;;;7.40;100.00;100084.14;213694;1285;139283;-87
2024/02/21 20:39:18;;;;;;;35.60;17.10;;;;;;;7.34;100.00;100082.54;213359;1285;140054;-86
2024/02/21 20:44:19;;;;;;;31.20;17.40;;;;;;;7.27;100.00;100069.83;213788;1285;139262;-87
2024/02/21 20:49:19;;;;;;;35.30;17.00;;;;;;;7.21;100.00;100054.08;213374;1288;140016;-86
2024/02/21 20:54:20;;;;;;;36.00;17.50;;;;;;;7.15;100.00;100044.65;213979;1288;97995;-87
2024/02/21 20:59:23;;;;;;;32.90;17.40;;;;;;;7.07;100.00;100035.05;213532;1287;139897;-87
2024/02/21 21:04:23;;;;;;;40.00;19.40;;;;;;;7.00;100.00;100027.55;213424;1287;139065;-86
2024/02/21 21:09:25;;;;;;;36.30;17.20;;;;;;;6.92;100.00;100018.73;213044;1287;140678;-87
2024/02/21 21:14:27;;;;;;;29.20;15.60;;;;;;;6.84;100.00;100019.13;213742;1286;139018;-87
2024/02/21 21:19:29;;;;;;;29.20;14.90;;;;;;;6.77;100.00;100014.08;213085;1287;140128;-87
2024/02/21 21:24:30;;;;;;;24.70;14.20;;;;;;;6.70;100.00;100004.09;213541;1287;98111;-86
2024/02/21 21:29:34;;;;;;;34.90;17.10;;;;;;;6.61;100.00;100007.03;212896;1292;141047;-87
2024/02/21 21:34:34;;;;;;;35.80;18.00;;;;;;;6.50;100.00;100001.42;213604;1286;139035;-87
2024/02/21 21:39:35;;;;;;;35.30;17.50;;;;;;;6.41;100.00;99993.81;213056;1287;140124;-86
2024/02/21 21:44:35;;;;;;;40.20;19.60;;;;;;;6.31;100.00;99985.80;213491;1285;139074;-86
2024/02/21 21:49:36;;;;;;;36.80;18.50;;;;;;;6.25;100.00;99978.17;213287;1285;139918;-86
2024/02/21 21:54:36;;;;;;;41.00;20.30;;;;;;;6.19;100.00;99970.30;213907;1285;99433;-86
2024/02/21 21:59:36;;;;;;;41.00;18.90;;;;;;;6.09;100.00;99958.48;213329;1287;139541;-87
2024/02/21 22:04:37;;;;;;;35.00;18.00;;;;;;;6.02;100.00;99954.13;213404;1287;138690;-86
2024/02/21 22:09:38;;;;;;;37.10;18.30;;;;;;;5.97;100.00;99949.70;212999;1286;140007;-86
2024/02/21 22:14:38;;;;;;;38.20;18.80;;;;;;;5.90;100.00;99941.45;213684;1285;140288;-87
2024/02/21 22:19:39;;;;;;;32.40;16.00;;;;;;;5.85;100.00;99934.55;213358;1285;140686;-86
2024/02/21 22:24:44;;;;;;;33.80;18.10;;;;;;;5.77;100.00;99925.54;213892;1288;99027;-87
2024/02/21 22:29:46;;;;;;;34.10;14.90;;;;;;;5.73;100.00;99926.13;213207;1290;139626;-87